createdAt,value
2018-12-20T00:02:11.746Z,16.53
2018-12-20T00:04:39.338Z,18.20
2018-12-20T00:07:06.744Z,17.63
2018-12-20T00:09:34.289Z,16.40
2018-12-20T00:12:01.750Z,18.10
2018-12-20T00:14:30.115Z,16.50
2018-12-20T00:17:03.383Z,16.00
2018-12-20T00:19:30.789Z,16.20
2018-12-20T00:21:58.314Z,17.00
2018-12-20T00:24:25.782Z,16.20
2018-12-20T00:26:53.454Z,16.60
2018-12-20T00:29:21.077Z,19.00
2018-12-20T00:31:48.580Z,16.77
2018-12-20T00:34:16.047Z,16.63
2018-12-20T00:36:43.580Z,16.53
2018-12-20T00:39:11.117Z,17.20
2018-12-20T00:41:38.603Z,17.13
2018-12-20T00:44:06.291Z,16.10
2018-12-20T00:46:33.818Z,16.57
2018-12-20T00:49:01.403Z,16.33
2018-12-20T00:51:29.064Z,16.00
2018-12-20T00:53:56.665Z,17.10
2018-12-20T00:56:24.178Z,16.53
2018-12-20T00:58:51.735Z,17.20
2018-12-20T01:01:19.255Z,18.00
2018-12-20T01:03:46.671Z,18.83
2018-12-20T01:06:14.216Z,16.03
2018-12-20T01:08:41.771Z,17.20
2018-12-20T01:11:09.330Z,16.40
2018-12-20T01:13:36.821Z,17.83
2018-12-20T01:16:04.246Z,17.17
2018-12-20T01:18:31.863Z,17.60
2018-12-20T01:20:59.266Z,18.17
2018-12-20T01:23:26.726Z,18.40
2018-12-20T01:25:54.278Z,18.03
2018-12-20T01:28:21.815Z,17.47
2018-12-20T01:30:49.282Z,19.50
2018-12-20T01:33:16.727Z,18.17
2018-12-20T01:35:44.133Z,17.63
2018-12-20T01:38:11.642Z,19.20
2018-12-20T01:40:39.040Z,19.37
2018-12-20T01:43:06.584Z,18.07
2018-12-20T01:45:34.038Z,19.50
2018-12-20T01:48:01.528Z,19.30
2018-12-20T01:50:29.080Z,19.67
2018-12-20T01:52:56.591Z,19.10
2018-12-20T01:55:24.087Z,19.30
2018-12-20T01:57:51.518Z,17.53
2018-12-20T02:00:19.109Z,18.50
2018-12-20T02:02:46.551Z,20.00
2018-12-20T02:05:14.152Z,19.07
2018-12-20T02:07:41.872Z,18.60
2018-12-20T02:10:09.611Z,18.20
2018-12-20T02:12:37.134Z,19.60
2018-12-20T02:15:06.357Z,18.90
2018-12-20T02:17:33.818Z,19.20
2018-12-20T02:20:01.445Z,19.30
2018-12-20T02:22:29.072Z,20.40
2018-12-20T02:24:56.529Z,19.37
2018-12-20T02:27:24.044Z,19.23
2018-12-20T02:29:51.602Z,18.77
2018-12-20T02:32:19.222Z,19.27
2018-12-20T02:34:46.812Z,18.40
2018-12-20T02:37:14.366Z,20.77
2018-12-20T02:39:41.883Z,19.50
2018-12-20T02:42:09.394Z,19.23
2018-12-20T02:44:36.938Z,20.30
2018-12-20T02:47:04.478Z,21.50
2018-12-20T02:49:31.944Z,21.00
2018-12-20T02:51:59.557Z,20.80
2018-12-20T02:54:27.026Z,21.90
2018-12-20T02:56:54.468Z,20.90
2018-12-20T02:59:22.061Z,21.23
2018-12-20T03:01:49.601Z,21.03
2018-12-20T03:04:17.312Z,21.33
2018-12-20T03:06:44.853Z,21.33
2018-12-20T03:09:12.566Z,18.90
2018-12-20T03:11:40.117Z,20.87
2018-12-20T03:14:07.677Z,20.33
2018-12-20T03:16:35.291Z,22.27
2018-12-20T03:19:03.054Z,20.70
2018-12-20T03:21:30.687Z,21.00
2018-12-20T03:23:58.235Z,21.83
2018-12-20T03:26:25.697Z,20.20
2018-12-20T03:28:53.246Z,21.90
2018-12-20T03:31:20.656Z,21.73
2018-12-20T03:33:48.363Z,20.90
2018-12-20T03:36:15.980Z,22.20
2018-12-20T03:38:43.418Z,22.80
2018-12-20T03:41:10.819Z,22.70
2018-12-20T03:43:38.482Z,22.30
2018-12-20T03:46:06.329Z,22.27
2018-12-20T03:48:33.840Z,23.23
2018-12-20T03:51:01.299Z,21.23
2018-12-20T03:53:28.727Z,21.70
2018-12-20T03:55:56.426Z,21.23
2018-12-20T03:58:23.964Z,21.43
2018-12-20T04:00:51.643Z,23.00
2018-12-20T04:03:19.284Z,22.83
2018-12-20T04:05:46.841Z,22.50
2018-12-20T04:08:14.480Z,21.13
2018-12-20T04:10:42.058Z,23.57
2018-12-20T04:13:09.515Z,21.97
2018-12-20T04:15:37.863Z,23.67
2018-12-20T04:18:05.819Z,24.73
2018-12-20T04:20:33.396Z,21.87
2018-12-20T04:23:00.982Z,25.30
2018-12-20T04:25:28.447Z,24.10
2018-12-20T04:27:56.093Z,23.50
2018-12-20T04:30:23.780Z,22.83
2018-12-20T04:32:51.335Z,24.63
2018-12-20T04:35:18.887Z,23.50
2018-12-20T04:37:46.676Z,23.60
2018-12-20T04:40:14.155Z,24.77
2018-12-20T04:42:41.614Z,23.47
2018-12-20T04:45:09.355Z,22.77
2018-12-20T04:47:36.902Z,24.50
2018-12-20T04:50:05.009Z,24.57
2018-12-20T04:52:32.555Z,23.40
2018-12-20T04:55:00.233Z,24.60
2018-12-20T04:57:28.096Z,24.10
2018-12-20T04:59:55.633Z,24.10
2018-12-20T05:02:23.368Z,24.67
2018-12-20T05:04:50.930Z,23.73
2018-12-20T05:07:18.423Z,24.57
2018-12-20T05:09:46.193Z,24.17
2018-12-20T05:12:14.039Z,25.17
2018-12-20T05:14:41.815Z,24.87
2018-12-20T05:17:09.334Z,25.50
2018-12-20T05:19:36.827Z,24.60
2018-12-20T05:22:04.441Z,24.40
2018-12-20T05:24:31.964Z,25.60
2018-12-20T05:26:59.401Z,24.53
2018-12-20T05:29:26.874Z,24.40
2018-12-20T05:31:54.454Z,23.60
2018-12-20T05:34:22.046Z,24.53
2018-12-20T05:36:49.502Z,24.43
2018-12-20T05:39:17.000Z,25.83
2018-12-20T05:41:44.823Z,25.10
2018-12-20T05:44:12.485Z,27.00
2018-12-20T05:46:40.073Z,26.97
2018-12-20T05:49:07.607Z,26.23
2018-12-20T05:51:35.603Z,24.90
2018-12-20T05:54:03.139Z,24.50
2018-12-20T05:56:30.879Z,26.10
2018-12-20T05:58:58.266Z,27.70
2018-12-20T06:01:25.896Z,24.27
2018-12-20T06:03:53.448Z,25.97
2018-12-20T06:06:20.941Z,26.80
2018-12-20T06:08:48.521Z,26.33
2018-12-20T06:11:16.042Z,26.77
2018-12-20T06:13:43.679Z,25.00
2018-12-20T06:16:12.957Z,24.80
2018-12-20T06:18:40.889Z,27.37
2018-12-20T06:21:08.577Z,24.67
2018-12-20T06:23:36.019Z,24.93
2018-12-20T06:26:03.461Z,25.67
2018-12-20T06:28:30.918Z,25.77
2018-12-20T06:30:58.369Z,26.40
2018-12-20T06:33:25.814Z,24.40
2018-12-20T06:35:53.283Z,25.97
2018-12-20T06:38:20.673Z,25.63
2018-12-20T06:40:48.094Z,24.60
2018-12-20T06:43:15.483Z,25.77
2018-12-20T06:45:42.902Z,25.90
2018-12-20T06:48:10.303Z,23.77
2018-12-20T06:50:38.684Z,24.03
2018-12-20T06:53:06.098Z,24.23
2018-12-20T06:55:33.554Z,24.43
2018-12-20T06:58:00.949Z,25.63
2018-12-20T07:00:28.363Z,25.70
2018-12-20T07:02:55.827Z,25.47
2018-12-20T07:05:23.280Z,24.83
2018-12-20T07:07:50.743Z,24.70
2018-12-20T07:10:18.195Z,24.07
2018-12-20T07:12:45.590Z,25.10
2018-12-20T07:15:13.002Z,24.23
2018-12-20T07:17:40.400Z,25.10
2018-12-20T07:20:07.922Z,26.80
2018-12-20T07:22:35.375Z,24.57
2018-12-20T07:25:02.766Z,25.40
2018-12-20T07:27:30.195Z,25.90
2018-12-20T07:29:57.598Z,25.20
2018-12-20T07:32:25.551Z,26.27
2018-12-20T07:34:53.122Z,24.93
2018-12-20T07:37:20.526Z,25.80
2018-12-20T07:39:47.918Z,25.60
2018-12-20T07:42:15.339Z,26.23
2018-12-20T07:44:42.721Z,26.10
2018-12-20T07:47:10.155Z,24.80
2018-12-20T07:49:37.553Z,26.27
2018-12-20T07:52:04.964Z,27.07
2018-12-20T07:54:32.419Z,26.30
2018-12-20T07:56:59.975Z,26.00
2018-12-20T07:59:27.436Z,24.80
2018-12-20T08:01:54.827Z,25.87
2018-12-20T08:04:22.255Z,27.80
2018-12-20T08:06:49.662Z,24.43
2018-12-20T08:09:17.158Z,25.50
2018-12-20T08:11:44.623Z,25.70
2018-12-20T08:14:12.283Z,25.43
2018-12-20T08:16:46.053Z,24.20
2018-12-20T08:19:09.135Z,26.13
2018-12-20T08:21:36.526Z,24.50
2018-12-20T08:24:03.958Z,26.10
2018-12-20T08:26:31.405Z,27.70
2018-12-20T08:28:58.869Z,24.60
2018-12-20T08:31:26.250Z,26.90
2018-12-20T08:33:53.630Z,27.40
2018-12-20T08:36:21.027Z,25.27
2018-12-20T08:38:48.590Z,26.20
2018-12-20T08:41:16.047Z,26.07
2018-12-20T08:43:43.503Z,25.33
2018-12-20T08:46:10.882Z,25.90
2018-12-20T08:48:38.303Z,25.50
2018-12-20T08:51:05.747Z,23.57
2018-12-20T08:53:33.207Z,25.83
2018-12-20T08:56:00.645Z,26.70
2018-12-20T08:58:28.055Z,26.80
2018-12-20T09:00:55.495Z,24.37
2018-12-20T09:03:22.954Z,25.47
2018-12-20T09:05:50.350Z,25.63
2018-12-20T09:08:17.762Z,22.77
2018-12-20T09:10:45.163Z,24.50
2018-12-20T09:13:12.579Z,23.70
2018-12-20T09:15:40.029Z,23.37
2018-12-20T09:18:07.498Z,25.17
2018-12-20T09:20:34.943Z,23.63
2018-12-20T09:23:02.406Z,25.53
2018-12-20T09:25:29.863Z,22.50
2018-12-20T09:27:57.318Z,24.60
2018-12-20T09:30:30.508Z,23.40
2018-12-20T09:32:54.176Z,24.20
2018-12-20T09:35:21.565Z,23.87
2018-12-20T09:37:48.986Z,25.13
2018-12-20T09:40:16.441Z,23.90
2018-12-20T09:42:43.832Z,23.03
2018-12-20T09:45:11.259Z,23.37
2018-12-20T09:47:44.351Z,24.30
2018-12-20T09:50:11.812Z,24.80
2018-12-20T09:52:39.258Z,24.97
2018-12-20T09:55:06.715Z,21.27
2018-12-20T09:57:34.171Z,22.90
2018-12-20T10:00:01.659Z,20.00
2018-12-20T10:02:29.112Z,24.00
2018-12-20T10:04:56.546Z,22.87
2018-12-20T10:07:24.011Z,23.60
2018-12-20T10:09:51.397Z,24.23
2018-12-20T10:12:18.814Z,24.00
2018-12-20T10:14:46.222Z,22.97
2018-12-20T10:17:19.861Z,23.93
2018-12-20T10:19:43.020Z,22.33
2018-12-20T10:22:10.565Z,23.10
2018-12-20T10:24:37.941Z,22.13
2018-12-20T10:27:05.353Z,20.53
2018-12-20T10:29:32.748Z,20.97
2018-12-20T10:32:00.161Z,23.17
2018-12-20T10:34:27.626Z,24.10
2018-12-20T10:36:55.019Z,23.50
2018-12-20T10:39:22.482Z,24.00
2018-12-20T10:41:49.943Z,23.40
2018-12-20T10:44:17.394Z,22.70
2018-12-20T10:46:44.796Z,23.43
2018-12-20T10:49:12.179Z,23.67
2018-12-20T10:51:39.658Z,22.10
2018-12-20T10:54:07.121Z,21.60
2018-12-20T10:56:34.675Z,20.40
2018-12-20T10:59:02.134Z,23.27
2018-12-20T11:01:52.241Z,23.77
2018-12-20T11:04:25.266Z,22.30
2018-12-20T11:06:58.385Z,23.80
2018-12-20T11:15:38.131Z,22.50
2018-12-20T11:18:05.542Z,20.87
2018-12-20T11:20:32.994Z,19.97
2018-12-20T11:23:00.507Z,22.30
2018-12-20T11:25:29.859Z,22.57
2018-12-20T11:28:07.361Z,21.10
2018-12-20T11:30:34.771Z,22.73
2018-12-20T11:33:02.200Z,21.90
2018-12-20T11:38:22.985Z,22.07
2018-12-20T11:40:50.377Z,21.40
2018-12-20T11:43:17.793Z,23.20
2018-12-20T11:45:45.181Z,22.67
2018-12-20T11:48:12.582Z,22.50
2018-12-20T11:50:40.997Z,23.43
2018-12-20T11:53:08.442Z,22.60
2018-12-20T11:55:35.843Z,22.00
2018-12-20T11:58:03.354Z,22.90
2018-12-20T12:00:32.666Z,18.90
2018-12-20T12:03:00.120Z,19.97
2018-12-20T12:05:27.579Z,19.87
2018-12-20T12:07:54.988Z,21.40
2018-12-20T12:10:22.486Z,20.77
2018-12-20T12:12:49.943Z,20.77
2018-12-20T12:15:17.357Z,22.40
2018-12-20T12:17:44.762Z,21.97
2018-12-20T12:20:12.215Z,20.47
2018-12-20T12:22:39.780Z,18.50
2018-12-20T12:25:08.146Z,20.00
2018-12-20T12:27:35.608Z,18.20
2018-12-20T12:30:05.116Z,17.98
2018-12-20T12:32:32.550Z,16.70
2018-12-20T12:35:00.017Z,16.87
2018-12-20T12:37:27.479Z,16.70
2018-12-20T12:39:54.939Z,17.77
2018-12-20T12:42:22.338Z,18.87
2018-12-20T12:44:49.749Z,18.73
2018-12-20T12:47:19.087Z,18.20
2018-12-20T12:49:46.490Z,18.47
2018-12-20T12:52:13.978Z,17.20
2018-12-20T12:54:41.419Z,15.83
2018-12-20T12:57:08.946Z,17.40
2018-12-20T12:59:36.439Z,17.20
2018-12-20T13:02:03.938Z,16.00
2018-12-20T13:04:31.355Z,17.60
2018-12-20T13:06:58.755Z,16.63
2018-12-20T13:09:26.149Z,17.03
2018-12-20T13:11:57.821Z,17.43
2018-12-20T13:14:25.279Z,15.73
2018-12-20T13:16:52.733Z,17.60
2018-12-20T13:19:20.190Z,18.87
2018-12-20T13:21:47.601Z,19.27
2018-12-20T13:24:15.122Z,17.07
2018-12-20T13:26:42.575Z,20.30
2018-12-20T13:29:10.001Z,19.50
2018-12-20T13:31:37.475Z,18.70
2018-12-20T13:34:05.035Z,16.97
2018-12-20T13:36:32.503Z,16.60
2018-12-20T13:38:59.950Z,16.30
2018-12-20T13:41:27.349Z,16.33
2018-12-20T13:43:54.866Z,16.47
2018-12-20T13:46:22.269Z,16.90
2018-12-20T13:48:54.794Z,16.87
2018-12-20T13:51:22.195Z,15.60
2018-12-20T13:53:49.679Z,15.57
2018-12-20T13:56:17.162Z,14.90
2018-12-20T13:58:44.562Z,17.23
2018-12-20T14:01:11.982Z,15.77
2018-12-20T14:03:39.437Z,16.50
2018-12-20T14:06:06.994Z,16.30
2018-12-20T14:08:34.446Z,15.40
2018-12-20T14:11:01.863Z,16.17
2018-12-20T14:13:29.362Z,14.40
2018-12-20T14:15:56.831Z,14.50
2018-12-20T14:18:30.818Z,14.80
2018-12-20T14:20:53.838Z,12.77
2018-12-20T14:23:21.237Z,16.07
2018-12-20T14:25:48.652Z,15.17
2018-12-20T14:28:16.159Z,14.13
2018-12-20T14:30:43.577Z,15.30
2018-12-20T14:33:11.197Z,13.43
2018-12-20T14:35:38.615Z,12.90
2018-12-20T14:38:06.050Z,12.87
2018-12-20T14:40:33.542Z,12.80
2018-12-20T14:43:00.942Z,12.97
2018-12-20T14:45:28.453Z,14.43
2018-12-20T14:48:00.637Z,14.40
2018-12-20T14:50:28.186Z,14.27
2018-12-20T14:52:55.596Z,14.30
2018-12-20T14:55:23.094Z,14.03
2018-12-20T14:57:50.554Z,14.90
2018-12-20T15:00:18.016Z,13.27
2018-12-20T15:02:45.471Z,12.50
2018-12-20T15:05:12.883Z,12.50
2018-12-20T15:07:40.388Z,13.37
2018-12-20T15:10:08.772Z,13.30
2018-12-20T15:12:36.263Z,13.10
2018-12-20T15:15:04.470Z,13.77
2018-12-20T15:17:31.883Z,14.03
2018-12-20T15:19:59.306Z,13.83
2018-12-20T15:22:26.738Z,12.90
2018-12-20T15:24:54.138Z,12.20
2018-12-20T15:27:21.557Z,12.30
2018-12-20T15:29:49.039Z,12.00
2018-12-20T15:32:16.455Z,13.63
2018-12-20T15:34:43.864Z,14.10
2018-12-20T15:37:11.293Z,11.00
2018-12-20T15:39:38.762Z,12.10
2018-12-20T15:42:06.214Z,12.10
2018-12-20T15:44:33.710Z,11.83
2018-12-20T15:47:01.172Z,12.20
2018-12-20T15:49:28.666Z,12.43
2018-12-20T15:51:56.146Z,11.43
2018-12-20T15:54:23.555Z,10.70
2018-12-20T15:56:51.059Z,11.00
2018-12-20T15:59:18.517Z,11.93
2018-12-20T16:01:45.930Z,11.00
2018-12-20T16:04:13.430Z,11.07
2018-12-20T16:06:40.886Z,10.90
2018-12-20T16:09:08.412Z,9.90
2018-12-20T16:11:35.908Z,10.80
2018-12-20T16:14:03.315Z,10.87
2018-12-20T16:16:40.951Z,10.87
2018-12-20T16:19:08.431Z,10.80
2018-12-20T16:21:35.839Z,10.30
2018-12-20T16:24:05.236Z,11.70
2018-12-20T16:26:32.626Z,10.30
2018-12-20T16:29:00.030Z,11.20
2018-12-20T16:31:27.543Z,11.37
2018-12-20T16:33:56.231Z,10.07
2018-12-20T16:36:23.791Z,11.00
2018-12-20T16:38:51.248Z,10.53
2018-12-20T16:41:18.711Z,11.47
2018-12-20T16:43:46.123Z,9.43
2018-12-20T16:46:13.623Z,13.00
2018-12-20T16:48:54.190Z,15.03
2018-12-20T16:51:22.193Z,13.17
2018-12-20T16:53:49.780Z,11.20
2018-12-20T16:56:17.486Z,10.13
2018-12-20T16:58:44.930Z,10.37
2018-12-20T17:01:12.543Z,10.20
2018-12-20T17:03:40.049Z,10.40
2018-12-20T17:06:17.703Z,9.63
2018-12-20T17:08:48.428Z,9.20
2018-12-20T17:11:14.500Z,9.10
2018-12-20T17:13:47.860Z,8.47
2018-12-20T17:16:15.255Z,9.20
2018-12-20T17:18:42.715Z,10.43
2018-12-20T17:21:10.157Z,9.53
2018-12-20T17:23:37.730Z,9.73
2018-12-20T17:26:05.182Z,10.40
2018-12-20T17:28:32.640Z,8.63
2018-12-20T17:31:00.128Z,8.70
2018-12-20T17:33:27.558Z,9.27
2018-12-20T17:35:55.022Z,8.10
2018-12-20T17:38:23.390Z,7.67
2018-12-20T17:40:50.783Z,7.50
2018-12-20T17:43:18.307Z,7.80
2018-12-20T17:45:45.706Z,8.57
2018-12-20T17:48:13.120Z,8.97
2018-12-20T17:50:40.570Z,7.20
2018-12-20T17:53:07.961Z,7.63
2018-12-20T17:55:35.377Z,7.23
2018-12-20T17:58:02.787Z,8.10
2018-12-20T18:00:30.294Z,7.60
2018-12-20T18:02:57.767Z,8.10
2018-12-20T18:05:25.183Z,8.00
2018-12-20T18:07:52.666Z,5.80
2018-12-20T18:10:20.117Z,8.40
2018-12-20T18:12:55.979Z,6.93
2018-12-20T18:15:23.449Z,6.43
2018-12-20T18:17:50.839Z,7.20
2018-12-20T18:20:18.241Z,6.57
2018-12-20T18:22:45.706Z,7.80
2018-12-20T18:25:14.095Z,8.80
2018-12-20T18:27:41.546Z,8.03
2018-12-20T18:30:09.713Z,7.60
2018-12-20T18:32:37.168Z,7.30
2018-12-20T18:35:04.631Z,6.37
2018-12-20T18:37:45.198Z,5.87
2018-12-20T18:40:17.427Z,6.00
2018-12-20T18:42:44.932Z,7.83
2018-12-20T18:45:16.487Z,7.10
2018-12-20T18:47:43.945Z,7.33
2018-12-20T18:50:11.350Z,6.17
2018-12-20T18:55:31.503Z,7.63
2018-12-20T18:57:59.007Z,6.50
2018-12-20T19:00:26.496Z,5.73
2018-12-20T19:02:53.958Z,5.60
2018-12-20T19:05:21.358Z,6.60
2018-12-20T19:07:48.784Z,6.70
2018-12-20T19:10:16.226Z,5.80
2018-12-20T19:12:56.283Z,7.30
2018-12-20T19:15:23.758Z,6.53
2018-12-20T19:17:51.146Z,5.37
2018-12-20T19:20:35.502Z,4.77
2018-12-20T19:26:02.210Z,5.50
2018-12-20T19:28:29.666Z,6.13
2018-12-20T19:30:57.072Z,5.17
2018-12-20T19:33:24.475Z,6.50
2018-12-20T19:36:09.137Z,5.73
2018-12-20T19:38:36.614Z,5.70
2018-12-20T19:41:04.052Z,6.33
2018-12-20T19:43:31.531Z,5.23
2018-12-20T19:45:58.938Z,4.90
2018-12-20T19:48:26.423Z,5.13
2018-12-20T19:50:56.850Z,7.20
2018-12-20T19:53:24.306Z,4.90
2018-12-20T19:55:51.775Z,4.90
2018-12-20T19:58:19.175Z,5.20
2018-12-20T20:00:46.674Z,5.00
2018-12-20T20:03:14.134Z,4.93
2018-12-20T20:05:41.593Z,4.80
2018-12-20T20:08:08.981Z,4.70
2018-12-20T20:10:36.403Z,4.60
2018-12-20T20:13:03.858Z,4.77
2018-12-20T20:15:31.270Z,5.57
2018-12-20T20:17:58.669Z,4.90
2018-12-20T20:20:26.234Z,5.13
2018-12-20T20:22:53.634Z,5.13
2018-12-20T20:25:25.858Z,5.47
2018-12-20T20:27:53.263Z,4.90
2018-12-20T20:30:22.722Z,5.03
2018-12-20T20:32:50.123Z,5.40
2018-12-20T20:35:17.554Z,5.27
2018-12-20T20:37:44.931Z,6.10
2018-12-20T20:40:13.370Z,6.10
2018-12-20T20:42:40.786Z,6.40
2018-12-20T20:45:08.258Z,5.40
2018-12-20T20:47:35.665Z,5.40
2018-12-20T20:50:22.398Z,5.73
2018-12-20T20:52:45.086Z,6.80
2018-12-20T20:55:31.492Z,6.13
2018-12-20T20:57:58.913Z,6.00
2018-12-20T21:00:26.312Z,6.30
2018-12-20T21:02:58.391Z,6.73
2018-12-20T21:05:25.831Z,7.30
2018-12-20T21:07:53.392Z,7.17
2018-12-20T21:10:20.782Z,6.83
2018-12-20T21:12:48.294Z,8.27
2018-12-20T21:15:15.735Z,7.17
2018-12-20T21:17:43.222Z,7.57
2018-12-20T21:20:10.683Z,8.30
2018-12-20T21:22:38.128Z,8.30
2018-12-20T21:25:05.782Z,7.90
2018-12-20T21:27:33.255Z,7.40
2018-12-20T21:30:00.702Z,7.40
2018-12-20T21:32:28.122Z,7.72
2018-12-20T21:34:55.619Z,7.00
2018-12-20T21:37:35.770Z,8.07
2018-12-20T21:40:16.435Z,6.40
2018-12-20T21:42:44.818Z,6.60
2018-12-20T21:45:12.485Z,7.20
2018-12-20T21:47:39.930Z,7.20
2018-12-20T21:50:08.116Z,7.10
2018-12-20T21:52:35.531Z,7.60
2018-12-20T21:55:05.791Z,6.90
2018-12-20T21:57:33.344Z,7.00
2018-12-20T22:00:01.430Z,6.30
2018-12-20T22:02:41.054Z,7.17
2018-12-20T22:05:08.541Z,6.97
2018-12-20T22:07:35.974Z,7.57
2018-12-20T22:10:05.119Z,7.80
2018-12-20T22:12:32.637Z,7.27
2018-12-20T22:17:52.943Z,8.20
2018-12-20T22:20:20.390Z,8.37
2018-12-20T22:22:53.277Z,8.80
2018-12-20T22:25:20.715Z,9.03
2018-12-20T22:27:48.122Z,9.30
2018-12-20T22:30:15.545Z,9.93
2018-12-20T22:32:55.290Z,10.50
2018-12-20T22:35:22.766Z,10.80
2018-12-20T22:37:51.126Z,9.27
2018-12-20T22:40:18.686Z,10.10
2018-12-20T22:42:46.147Z,10.33
2018-12-20T22:45:13.565Z,11.00
2018-12-20T22:47:41.059Z,11.30
2018-12-20T22:50:08.834Z,10.40
2018-12-20T22:52:36.287Z,11.77
2018-12-20T22:55:16.795Z,10.93
2018-12-20T22:57:44.186Z,12.03
2018-12-20T23:00:11.602Z,12.40
2018-12-20T23:02:52.839Z,12.00
2018-12-20T23:05:20.295Z,12.23
2018-12-20T23:07:47.725Z,10.90
2018-12-20T23:10:15.207Z,12.50
2018-12-20T23:12:42.611Z,12.80
2018-12-20T23:15:10.120Z,11.90
2018-12-20T23:17:37.583Z,14.07
2018-12-20T23:20:06.069Z,12.63
2018-12-20T23:22:33.518Z,13.40
2018-12-20T23:25:01.000Z,11.50
2018-12-20T23:27:36.755Z,11.83
2018-12-20T23:30:05.067Z,11.63
2018-12-20T23:32:32.563Z,12.20
2018-12-20T23:34:59.963Z,12.47
2018-12-20T23:37:27.369Z,12.00
2018-12-20T23:39:54.771Z,12.70
2018-12-20T23:42:22.685Z,12.20
2018-12-20T23:44:50.151Z,12.83
2018-12-20T23:47:43.178Z,13.10
2018-12-20T23:50:10.590Z,14.93
2018-12-20T23:52:38.018Z,13.47
2018-12-20T23:55:05.478Z,13.30
2018-12-20T23:57:32.939Z,13.37
